sensor_id;sensor_type;location;lat;lon;timestamp;temperature;humidity
69731;SHT31;56996;48.138;11.538;2022-07-05T00:01:02;19.84;75.78
69731;SHT31;56996;48.138;11.538;2022-07-05T00:03:28;19.83;75.74
69731;SHT31;56996;48.138;11.538;2022-07-05T00:05:55;19.84;75.63
69731;SHT31;56996;48.138;11.538;2022-07-05T00:08:22;19.83;75.88
69731;SHT31;56996;48.138;11.538;2022-07-05T00:10:49;19.81;75.65
69731;SHT31;56996;48.138;11.538;2022-07-05T00:13:15;19.78;75.58
69731;SHT31;56996;48.138;11.538;2022-07-05T00:15:41;19.76;75.83
69731;SHT31;56996;48.138;11.538;2022-07-05T00:18:08;19.75;75.85
69731;SHT31;56996;48.138;11.538;2022-07-05T00:20:34;19.74;76.04
69731;SHT31;56996;48.138;11.538;2022-07-05T00:23:00;19.70;75.93
69731;SHT31;56996;48.138;11.538;2022-07-05T00:25:26;19.64;76.00
69731;SHT31;56996;48.138;11.538;2022-07-05T00:27:52;19.58;76.09
69731;SHT31;56996;48.138;11.538;2022-07-05T00:30:21;19.54;76.39
69731;SHT31;56996;48.138;11.538;2022-07-05T00:32:47;19.49;76.61
69731;SHT31;56996;48.138;11.538;2022-07-05T00:35:14;19.44;76.80
69731;SHT31;56996;48.138;11.538;2022-07-05T00:37:40;19.37;76.94
69731;SHT31;56996;48.138;11.538;2022-07-05T00:40:06;19.24;77.49
69731;SHT31;56996;48.138;11.538;2022-07-05T00:42:33;19.17;77.92
69731;SHT31;56996;48.138;11.538;2022-07-05T00:45:02;19.17;78.09
69731;SHT31;56996;48.138;11.538;2022-07-05T00:47:32;19.17;77.94
69731;SHT31;56996;48.138;11.538;2022-07-05T00:49:58;19.16;78.23
69731;SHT31;56996;48.138;11.538;2022-07-05T00:52:24;19.16;78.19
69731;SHT31;56996;48.138;11.538;2022-07-05T00:54:51;19.17;78.24
69731;SHT31;56996;48.138;11.538;2022-07-05T00:57:19;19.15;77.97
69731;SHT31;56996;48.138;11.538;2022-07-05T00:59:47;19.15;78.30
69731;SHT31;56996;48.138;11.538;2022-07-05T01:02:15;19.18;78.13
69731;SHT31;56996;48.138;11.538;2022-07-05T01:04:45;19.18;78.30
69731;SHT31;56996;48.138;11.538;2022-07-05T01:07:17;19.19;78.38
69731;SHT31;56996;48.138;11.538;2022-07-05T01:09:46;19.21;78.12
69731;SHT31;56996;48.138;11.538;2022-07-05T01:12:12;19.22;77.98
69731;SHT31;56996;48.138;11.538;2022-07-05T01:14:38;19.21;77.99
69731;SHT31;56996;48.138;11.538;2022-07-05T01:17:08;19.22;78.15
69731;SHT31;56996;48.138;11.538;2022-07-05T01:19:35;19.24;78.17
69731;SHT31;56996;48.138;11.538;2022-07-05T01:22:02;19.23;78.22
69731;SHT31;56996;48.138;11.538;2022-07-05T01:24:33;19.25;78.31
69731;SHT31;56996;48.138;11.538;2022-07-05T01:26:59;19.23;78.61
69731;SHT31;56996;48.138;11.538;2022-07-05T01:29:26;19.20;78.29
69731;SHT31;56996;48.138;11.538;2022-07-05T01:31:52;19.20;78.26
69731;SHT31;56996;48.138;11.538;2022-07-05T01:34:19;19.19;78.23
69731;SHT31;56996;48.138;11.538;2022-07-05T01:36:45;19.17;78.58
69731;SHT31;56996;48.138;11.538;2022-07-05T01:39:11;19.16;78.51
69731;SHT31;56996;48.138;11.538;2022-07-05T01:41:37;19.15;78.59
69731;SHT31;56996;48.138;11.538;2022-07-05T01:44:03;19.13;78.37
69731;SHT31;56996;48.138;11.538;2022-07-05T01:46:30;19.10;78.26
69731;SHT31;56996;48.138;11.538;2022-07-05T01:49:00;19.06;78.41
69731;SHT31;56996;48.138;11.538;2022-07-05T01:51:39;19.01;78.44
69731;SHT31;56996;48.138;11.538;2022-07-05T01:54:35;18.96;78.57
69731;SHT31;56996;48.138;11.538;2022-07-05T01:57:02;18.98;78.88
69731;SHT31;56996;48.138;11.538;2022-07-05T01:59:32;18.99;78.81
69731;SHT31;56996;48.138;11.538;2022-07-05T02:01:59;18.99;78.70
69731;SHT31;56996;48.138;11.538;2022-07-05T02:04:27;18.99;78.80
69731;SHT31;56996;48.138;11.538;2022-07-05T02:06:55;19.01;78.68
69731;SHT31;56996;48.138;11.538;2022-07-05T02:09:22;19.01;78.77
69731;SHT31;56996;48.138;11.538;2022-07-05T02:11:49;19.01;78.48
69731;SHT31;56996;48.138;11.538;2022-07-05T02:14:17;18.99;78.65
69731;SHT31;56996;48.138;11.538;2022-07-05T02:16:43;18.97;78.74
69731;SHT31;56996;48.138;11.538;2022-07-05T02:19:10;18.96;78.67
69731;SHT31;56996;48.138;11.538;2022-07-05T02:21:38;18.93;78.62
69731;SHT31;56996;48.138;11.538;2022-07-05T02:24:07;18.95;78.69
69731;SHT31;56996;48.138;11.538;2022-07-05T02:26:38;18.92;78.75
69731;SHT31;56996;48.138;11.538;2022-07-05T02:29:05;18.93;78.78
69731;SHT31;56996;48.138;11.538;2022-07-05T02:31:32;18.95;78.77
69731;SHT31;56996;48.138;11.538;2022-07-05T02:33:58;18.93;78.54
69731;SHT31;56996;48.138;11.538;2022-07-05T02:36:25;18.92;78.60
69731;SHT31;56996;48.138;11.538;2022-07-05T02:38:53;18.91;78.66
69731;SHT31;56996;48.138;11.538;2022-07-05T02:41:19;18.90;78.57
69731;SHT31;56996;48.138;11.538;2022-07-05T02:43:46;18.90;78.74
69731;SHT31;56996;48.138;11.538;2022-07-05T02:46:14;18.88;78.83
69731;SHT31;56996;48.138;11.538;2022-07-05T02:48:41;18.87;78.92
69731;SHT31;56996;48.138;11.538;2022-07-05T02:51:07;18.84;79.02
69731;SHT31;56996;48.138;11.538;2022-07-05T02:53:34;18.79;79.05
69731;SHT31;56996;48.138;11.538;2022-07-05T02:56:02;18.76;79.19
69731;SHT31;56996;48.138;11.538;2022-07-05T02:58:28;18.70;79.21
69731;SHT31;56996;48.138;11.538;2022-07-05T03:00:55;18.68;79.27
69731;SHT31;56996;48.138;11.538;2022-07-05T03:03:22;18.66;79.38
69731;SHT31;56996;48.138;11.538;2022-07-05T03:05:48;18.65;79.53
69731;SHT31;56996;48.138;11.538;2022-07-05T03:08:14;18.65;79.52
69731;SHT31;56996;48.138;11.538;2022-07-05T03:10:40;18.67;79.68
69731;SHT31;56996;48.138;11.538;2022-07-05T03:13:07;18.68;79.47
69731;SHT31;56996;48.138;11.538;2022-07-05T03:15:33;18.70;79.53
69731;SHT31;56996;48.138;11.538;2022-07-05T03:18:00;18.69;79.59
69731;SHT31;56996;48.138;11.538;2022-07-05T03:20:27;18.69;79.59
69731;SHT31;56996;48.138;11.538;2022-07-05T03:22:54;18.67;79.76
69731;SHT31;56996;48.138;11.538;2022-07-05T03:25:23;18.68;79.82
69731;SHT31;56996;48.138;11.538;2022-07-05T03:27:49;18.70;79.73
69731;SHT31;56996;48.138;11.538;2022-07-05T03:30:15;18.69;79.56
69731;SHT31;56996;48.138;11.538;2022-07-05T03:32:41;18.68;79.53
69731;SHT31;56996;48.138;11.538;2022-07-05T03:35:07;18.67;79.67
69731;SHT31;56996;48.138;11.538;2022-07-05T03:37:34;18.67;79.62
69731;SHT31;56996;48.138;11.538;2022-07-05T03:40:02;18.67;79.48
69731;SHT31;56996;48.138;11.538;2022-07-05T03:42:29;18.65;79.47
69731;SHT31;56996;48.138;11.538;2022-07-05T03:44:55;18.63;79.49
69731;SHT31;56996;48.138;11.538;2022-07-05T03:47:22;18.58;79.60
69731;SHT31;56996;48.138;11.538;2022-07-05T03:49:49;18.54;79.79
69731;SHT31;56996;48.138;11.538;2022-07-05T03:52:15;18.52;79.83
69731;SHT31;56996;48.138;11.538;2022-07-05T03:54:41;18.48;79.81
69731;SHT31;56996;48.138;11.538;2022-07-05T03:57:10;18.43;79.90
69731;SHT31;56996;48.138;11.538;2022-07-05T03:59:39;18.44;80.05
69731;SHT31;56996;48.138;11.538;2022-07-05T04:02:06;18.44;80.09
69731;SHT31;56996;48.138;11.538;2022-07-05T04:04:33;18.46;80.14
69731;SHT31;56996;48.138;11.538;2022-07-05T04:07:00;18.45;80.05
69731;SHT31;56996;48.138;11.538;2022-07-05T04:09:27;18.42;79.93
69731;SHT31;56996;48.138;11.538;2022-07-05T04:11:54;18.39;79.88
69731;SHT31;56996;48.138;11.538;2022-07-05T04:14:21;18.37;80.06
69731;SHT31;56996;48.138;11.538;2022-07-05T04:16:48;18.39;80.02
69731;SHT31;56996;48.138;11.538;2022-07-05T04:19:14;18.40;79.94
69731;SHT31;56996;48.138;11.538;2022-07-05T04:21:40;18.44;79.83
69731;SHT31;56996;48.138;11.538;2022-07-05T04:24:07;18.48;79.82
69731;SHT31;56996;48.138;11.538;2022-07-05T04:26:34;18.49;79.70
69731;SHT31;56996;48.138;11.538;2022-07-05T04:29:00;18.50;79.72
69731;SHT31;56996;48.138;11.538;2022-07-05T04:31:28;18.53;79.80
69731;SHT31;56996;48.138;11.538;2022-07-05T04:33:55;18.59;79.72
69731;SHT31;56996;48.138;11.538;2022-07-05T04:36:23;18.65;79.53
69731;SHT31;56996;48.138;11.538;2022-07-05T04:38:51;18.71;79.33
69731;SHT31;56996;48.138;11.538;2022-07-05T04:41:19;18.75;79.33
69731;SHT31;56996;48.138;11.538;2022-07-05T04:43:45;18.79;79.25
69731;SHT31;56996;48.138;11.538;2022-07-05T04:46:12;18.81;79.31
69731;SHT31;56996;48.138;11.538;2022-07-05T04:48:38;18.89;79.17
69731;SHT31;56996;48.138;11.538;2022-07-05T04:51:05;18.97;79.03
69731;SHT31;56996;48.138;11.538;2022-07-05T04:53:32;19.03;78.97
69731;SHT31;56996;48.138;11.538;2022-07-05T04:55:58;19.10;78.87
69731;SHT31;56996;48.138;11.538;2022-07-05T04:58:24;19.16;78.79
69731;SHT31;56996;48.138;11.538;2022-07-05T05:00:50;19.23;78.43
69731;SHT31;56996;48.138;11.538;2022-07-05T05:03:16;19.29;78.02
69731;SHT31;56996;48.138;11.538;2022-07-05T05:05:42;19.38;77.72
69731;SHT31;56996;48.138;11.538;2022-07-05T05:08:09;19.46;77.40
69731;SHT31;56996;48.138;11.538;2022-07-05T05:10:35;19.57;77.14
69731;SHT31;56996;48.138;11.538;2022-07-05T05:13:01;19.64;76.75
69731;SHT31;56996;48.138;11.538;2022-07-05T05:15:27;19.65;76.65
69731;SHT31;56996;48.138;11.538;2022-07-05T05:17:53;19.69;76.61
69731;SHT31;56996;48.138;11.538;2022-07-05T05:20:19;19.76;76.48
69731;SHT31;56996;48.138;11.538;2022-07-05T05:22:46;19.81;76.33
69731;SHT31;56996;48.138;11.538;2022-07-05T05:25:13;19.86;76.22
69731;SHT31;56996;48.138;11.538;2022-07-05T05:27:40;19.92;76.13
69731;SHT31;56996;48.138;11.538;2022-07-05T05:30:14;19.94;75.93
69731;SHT31;56996;48.138;11.538;2022-07-05T05:32:44;19.95;75.99
69731;SHT31;56996;48.138;11.538;2022-07-05T05:35:11;20.01;75.89
69731;SHT31;56996;48.138;11.538;2022-07-05T05:37:50;20.03;75.62
69731;SHT31;56996;48.138;11.538;2022-07-05T05:40:19;20.11;75.64
69731;SHT31;56996;48.138;11.538;2022-07-05T05:42:51;20.20;75.55
69731;SHT31;56996;48.138;11.538;2022-07-05T05:45:19;20.30;75.17
69731;SHT31;56996;48.138;11.538;2022-07-05T05:47:46;20.37;74.87
69731;SHT31;56996;48.138;11.538;2022-07-05T05:50:21;20.44;74.66
69731;SHT31;56996;48.138;11.538;2022-07-05T05:52:49;20.53;74.53
69731;SHT31;56996;48.138;11.538;2022-07-05T05:55:16;20.57;74.38
69731;SHT31;56996;48.138;11.538;2022-07-05T05:57:43;20.58;74.35
69731;SHT31;56996;48.138;11.538;2022-07-05T06:00:10;20.65;74.13
69731;SHT31;56996;48.138;11.538;2022-07-05T06:02:38;20.72;73.98
69731;SHT31;56996;48.138;11.538;2022-07-05T06:05:05;20.82;73.74
69731;SHT31;56996;48.138;11.538;2022-07-05T06:07:46;20.93;73.54
69731;SHT31;56996;48.138;11.538;2022-07-05T06:10:21;21.69;73.02
69731;SHT31;56996;48.138;11.538;2022-07-05T06:12:48;23.70;69.11
69731;SHT31;56996;48.138;11.538;2022-07-05T06:15:17;25.72;64.46
69731;SHT31;56996;48.138;11.538;2022-07-05T06:17:44;27.47;60.31
69731;SHT31;56996;48.138;11.538;2022-07-05T06:20:11;28.99;56.92
69731;SHT31;56996;48.138;11.538;2022-07-05T06:22:43;30.32;53.40
69731;SHT31;56996;48.138;11.538;2022-07-05T06:25:10;31.27;51.34
69731;SHT31;56996;48.138;11.538;2022-07-05T06:27:53;32.06;49.46
69731;SHT31;56996;48.138;11.538;2022-07-05T06:30:22;32.88;47.54
69731;SHT31;56996;48.138;11.538;2022-07-05T06:32:51;33.01;44.29
69731;SHT31;56996;48.138;11.538;2022-07-05T06:35:18;32.60;45.72
69731;SHT31;56996;48.138;11.538;2022-07-05T06:37:46;33.47;44.82
69731;SHT31;56996;48.138;11.538;2022-07-05T06:40:25;34.58;42.73
69731;SHT31;56996;48.138;11.538;2022-07-05T06:42:55;35.47;40.65
69731;SHT31;56996;48.138;11.538;2022-07-05T06:45:30;36.19;39.93
69731;SHT31;56996;48.138;11.538;2022-07-05T06:48:06;37.04;38.37
69731;SHT31;56996;48.138;11.538;2022-07-05T06:50:35;37.68;37.30
69731;SHT31;56996;48.138;11.538;2022-07-05T06:53:04;37.95;36.79
69731;SHT31;56996;48.138;11.538;2022-07-05T06:55:31;38.54;35.46
69731;SHT31;56996;48.138;11.538;2022-07-05T06:57:58;38.84;34.51
69731;SHT31;56996;48.138;11.538;2022-07-05T07:00:42;38.68;32.74
69731;SHT31;56996;48.138;11.538;2022-07-05T07:03:29;37.17;33.52
69731;SHT31;56996;48.138;11.538;2022-07-05T07:06:16;36.78;34.52
69731;SHT31;56996;48.138;11.538;2022-07-05T07:08:42;37.53;34.10
69731;SHT31;56996;48.138;11.538;2022-07-05T07:11:27;38.49;32.88
69731;SHT31;56996;48.138;11.538;2022-07-05T07:13:53;39.07;32.47
69731;SHT31;56996;48.138;11.538;2022-07-05T07:16:19;38.84;32.16
69731;SHT31;56996;48.138;11.538;2022-07-05T07:18:46;38.13;32.44
69731;SHT31;56996;48.138;11.538;2022-07-05T07:21:32;36.97;33.17
69731;SHT31;56996;48.138;11.538;2022-07-05T07:23:58;35.97;34.27
69731;SHT31;56996;48.138;11.538;2022-07-05T07:26:24;36.43;34.09
69731;SHT31;56996;48.138;11.538;2022-07-05T07:28:50;37.44;32.80
69731;SHT31;56996;48.138;11.538;2022-07-05T07:31:16;37.02;32.83
69731;SHT31;56996;48.138;11.538;2022-07-05T07:33:43;36.53;33.16
69731;SHT31;56996;48.138;11.538;2022-07-05T07:36:10;36.46;33.20
69731;SHT31;56996;48.138;11.538;2022-07-05T07:38:41;36.58;32.91
69731;SHT31;56996;48.138;11.538;2022-07-05T07:41:07;36.82;32.66
69731;SHT31;56996;48.138;11.538;2022-07-05T07:43:34;37.37;32.01
69731;SHT31;56996;48.138;11.538;2022-07-05T07:46:00;37.68;31.33
69731;SHT31;56996;48.138;11.538;2022-07-05T07:48:26;37.32;31.50
69731;SHT31;56996;48.138;11.538;2022-07-05T07:50:54;37.01;31.90
69731;SHT31;56996;48.138;11.538;2022-07-05T07:53:20;37.05;32.08
69731;SHT31;56996;48.138;11.538;2022-07-05T07:55:46;37.23;29.89
69731;SHT31;56996;48.138;11.538;2022-07-05T07:58:14;36.28;30.49
69731;SHT31;56996;48.138;11.538;2022-07-05T08:00:40;36.55;30.51
69731;SHT31;56996;48.138;11.538;2022-07-05T08:03:06;37.25;28.14
69731;SHT31;56996;48.138;11.538;2022-07-05T08:05:32;37.02;27.01
69731;SHT31;56996;48.138;11.538;2022-07-05T08:07:58;36.49;27.51
69731;SHT31;56996;48.138;11.538;2022-07-05T08:10:25;36.54;28.27
69731;SHT31;56996;48.138;11.538;2022-07-05T08:12:52;37.70;27.57
69731;SHT31;56996;48.138;11.538;2022-07-05T08:15:18;37.82;27.58
69731;SHT31;56996;48.138;11.538;2022-07-05T08:17:44;38.12;27.51
69731;SHT31;56996;48.138;11.538;2022-07-05T08:20:30;39.21;26.41
69731;SHT31;56996;48.138;11.538;2022-07-05T08:23:15;39.37;24.62
69731;SHT31;56996;48.138;11.538;2022-07-05T08:25:41;37.99;25.53
69731;SHT31;56996;48.138;11.538;2022-07-05T08:28:07;37.46;25.94
69731;SHT31;56996;48.138;11.538;2022-07-05T08:30:33;37.03;25.96
69731;SHT31;56996;48.138;11.538;2022-07-05T08:32:59;37.02;26.30
69731;SHT31;56996;48.138;11.538;2022-07-05T08:35:25;36.98;25.59
69731;SHT31;56996;48.138;11.538;2022-07-05T08:37:52;37.34;24.42
69731;SHT31;56996;48.138;11.538;2022-07-05T08:40:19;37.19;24.09
69731;SHT31;56996;48.138;11.538;2022-07-05T08:42:52;37.35;24.09
69731;SHT31;56996;48.138;11.538;2022-07-05T08:45:21;37.47;24.21
69731;SHT31;56996;48.138;11.538;2022-07-05T08:47:51;37.72;24.05
69731;SHT31;56996;48.138;11.538;2022-07-05T08:50:19;37.73;23.97
69731;SHT31;56996;48.138;11.538;2022-07-05T08:52:47;37.85;24.15
69731;SHT31;56996;48.138;11.538;2022-07-05T08:55:15;38.89;23.10
69731;SHT31;56996;48.138;11.538;2022-07-05T08:57:41;39.42;23.01
69731;SHT31;56996;48.138;11.538;2022-07-05T09:00:07;39.79;21.16
69731;SHT31;56996;48.138;11.538;2022-07-05T09:02:34;39.15;20.75
69731;SHT31;56996;48.138;11.538;2022-07-05T09:05:01;39.03;21.50
69731;SHT31;56996;48.138;11.538;2022-07-05T09:07:27;39.10;21.72
69731;SHT31;56996;48.138;11.538;2022-07-05T09:09:58;39.09;21.27
69731;SHT31;56996;48.138;11.538;2022-07-05T09:12:27;38.98;21.51
69731;SHT31;56996;48.138;11.538;2022-07-05T09:14:54;40.43;21.22
69731;SHT31;56996;48.138;11.538;2022-07-05T09:17:22;41.45;19.20
69731;SHT31;56996;48.138;11.538;2022-07-05T09:20:04;40.58;19.17
69731;SHT31;56996;48.138;11.538;2022-07-05T09:23:09;40.17;20.17
69731;SHT31;56996;48.138;11.538;2022-07-05T09:25:29;41.04;19.13
69731;SHT31;56996;48.138;11.538;2022-07-05T09:28:01;40.06;18.38
69731;SHT31;56996;48.138;11.538;2022-07-05T09:30:36;38.51;19.88
69731;SHT31;56996;48.138;11.538;2022-07-05T09:35:41;37.95;20.25
69731;SHT31;56996;48.138;11.538;2022-07-05T09:38:26;37.89;20.26
69731;SHT31;56996;48.138;11.538;2022-07-05T09:40:57;37.18;19.95
69731;SHT31;56996;48.138;11.538;2022-07-05T09:43:26;36.31;20.66
69731;SHT31;56996;48.138;11.538;2022-07-05T09:48:29;35.35;22.31
69731;SHT31;56996;48.138;11.538;2022-07-05T09:51:11;34.45;22.79
69731;SHT31;56996;48.138;11.538;2022-07-05T09:53:59;33.80;23.64
69731;SHT31;56996;48.138;11.538;2022-07-05T09:56:30;33.57;24.37
69731;SHT31;56996;48.138;11.538;2022-07-05T09:59:13;33.62;24.56
69731;SHT31;56996;48.138;11.538;2022-07-05T10:01:46;33.59;24.89
69731;SHT31;56996;48.138;11.538;2022-07-05T10:04:13;33.45;25.12
69731;SHT31;56996;48.138;11.538;2022-07-05T10:06:40;33.82;24.90
69731;SHT31;56996;48.138;11.538;2022-07-05T10:09:06;34.18;24.80
69731;SHT31;56996;48.138;11.538;2022-07-05T10:11:37;34.35;24.58
69731;SHT31;56996;48.138;11.538;2022-07-05T10:14:10;33.81;24.35
69731;SHT31;56996;48.138;11.538;2022-07-05T10:16:43;33.31;24.85
69731;SHT31;56996;48.138;11.538;2022-07-05T10:19:18;33.18;25.20
69731;SHT31;56996;48.138;11.538;2022-07-05T10:21:46;33.24;25.25
69731;SHT31;56996;48.138;11.538;2022-07-05T10:24:33;33.24;25.28
69731;SHT31;56996;48.138;11.538;2022-07-05T10:27:02;32.76;25.30
69731;SHT31;56996;48.138;11.538;2022-07-05T10:29:33;31.88;25.72
69731;SHT31;56996;48.138;11.538;2022-07-05T10:32:01;31.66;26.15
69731;SHT31;56996;48.138;11.538;2022-07-05T10:34:28;31.51;26.13
69731;SHT31;56996;48.138;11.538;2022-07-05T10:37:18;31.53;26.03
69731;SHT31;56996;48.138;11.538;2022-07-05T10:39:45;31.27;26.42
69731;SHT31;56996;48.138;11.538;2022-07-05T10:42:11;31.21;26.32
69731;SHT31;56996;48.138;11.538;2022-07-05T10:44:38;31.38;26.30
69731;SHT31;56996;48.138;11.538;2022-07-05T10:47:08;31.14;25.92
69731;SHT31;56996;48.138;11.538;2022-07-05T10:49:39;30.96;26.59
69731;SHT31;56996;48.138;11.538;2022-07-05T10:52:22;31.01;26.96
69731;SHT31;56996;48.138;11.538;2022-07-05T11:00:42;31.53;25.87
69731;SHT31;56996;48.138;11.538;2022-07-05T11:06:07;31.15;25.99
69731;SHT31;56996;48.138;11.538;2022-07-05T11:11:32;30.51;26.87
69731;SHT31;56996;48.138;11.538;2022-07-05T11:14:37;30.18;27.40
69731;SHT31;56996;48.138;11.538;2022-07-05T11:25:30;29.96;25.68
69731;SHT31;56996;48.138;11.538;2022-07-05T11:28:21;29.76;25.50
69731;SHT31;56996;48.138;11.538;2022-07-05T11:33:33;29.50;26.23
69731;SHT31;56996;48.138;11.538;2022-07-05T11:36:05;29.16;26.74
69731;SHT31;56996;48.138;11.538;2022-07-05T11:41:48;29.20;26.28
69731;SHT31;56996;48.138;11.538;2022-07-05T11:44:15;29.14;26.79
69731;SHT31;56996;48.138;11.538;2022-07-05T11:46:43;29.22;26.95
69731;SHT31;56996;48.138;11.538;2022-07-05T11:49:23;29.18;27.00
69731;SHT31;56996;48.138;11.538;2022-07-05T11:52:00;29.08;27.20
69731;SHT31;56996;48.138;11.538;2022-07-05T11:54:29;28.80;27.68
69731;SHT31;56996;48.138;11.538;2022-07-05T11:56:58;28.62;28.10
69731;SHT31;56996;48.138;11.538;2022-07-05T11:59:26;28.77;27.92
69731;SHT31;56996;48.138;11.538;2022-07-05T12:01:53;28.96;27.94
69731;SHT31;56996;48.138;11.538;2022-07-05T12:04:21;29.06;27.53
69731;SHT31;56996;48.138;11.538;2022-07-05T12:06:52;29.04;27.21
69731;SHT31;56996;48.138;11.538;2022-07-05T12:09:24;28.73;27.70
69731;SHT31;56996;48.138;11.538;2022-07-05T12:11:54;28.75;28.06
69731;SHT31;56996;48.138;11.538;2022-07-05T12:14:47;28.83;27.69
69731;SHT31;56996;48.138;11.538;2022-07-05T12:17:17;28.74;27.92
69731;SHT31;56996;48.138;11.538;2022-07-05T12:19:51;28.81;27.92
69731;SHT31;56996;48.138;11.538;2022-07-05T12:22:29;29.01;28.11
69731;SHT31;56996;48.138;11.538;2022-07-05T12:25:00;29.18;27.83
69731;SHT31;56996;48.138;11.538;2022-07-05T12:27:28;29.23;27.55
69731;SHT31;56996;48.138;11.538;2022-07-05T12:29:56;29.05;27.56
69731;SHT31;56996;48.138;11.538;2022-07-05T12:32:23;28.97;27.94
69731;SHT31;56996;48.138;11.538;2022-07-05T12:34:50;28.90;28.03
69731;SHT31;56996;48.138;11.538;2022-07-05T12:37:23;28.90;28.02
69731;SHT31;56996;48.138;11.538;2022-07-05T12:40:01;29.01;27.75
69731;SHT31;56996;48.138;11.538;2022-07-05T12:42:33;28.99;28.06
69731;SHT31;56996;48.138;11.538;2022-07-05T12:45:11;28.69;28.22
69731;SHT31;56996;48.138;11.538;2022-07-05T12:47:48;28.34;28.48
69731;SHT31;56996;48.138;11.538;2022-07-05T12:50:22;28.22;28.38
69731;SHT31;56996;48.138;11.538;2022-07-05T12:55:51;28.57;28.25
69731;SHT31;56996;48.138;11.538;2022-07-05T12:58:46;28.65;27.98
69731;SHT31;56996;48.138;11.538;2022-07-05T13:01:20;28.49;27.97
69731;SHT31;56996;48.138;11.538;2022-07-05T13:06:22;28.40;27.54
69731;SHT31;56996;48.138;11.538;2022-07-05T13:08:56;28.31;27.82
69731;SHT31;56996;48.138;11.538;2022-07-05T13:11:29;28.14;27.84
69731;SHT31;56996;48.138;11.538;2022-07-05T13:13:57;28.03;28.09
69731;SHT31;56996;48.138;11.538;2022-07-05T13:16:23;28.24;28.18
69731;SHT31;56996;48.138;11.538;2022-07-05T13:18:49;28.60;27.97
69731;SHT31;56996;48.138;11.538;2022-07-05T13:21:16;28.78;27.26
69731;SHT31;56996;48.138;11.538;2022-07-05T13:23:48;28.68;27.64
69731;SHT31;56996;48.138;11.538;2022-07-05T13:26:14;28.57;27.69
69731;SHT31;56996;48.138;11.538;2022-07-05T13:28:40;28.24;27.45
69731;SHT31;56996;48.138;11.538;2022-07-05T13:31:06;27.99;26.84
69731;SHT31;56996;48.138;11.538;2022-07-05T13:33:32;27.97;26.58
69731;SHT31;56996;48.138;11.538;2022-07-05T13:35:59;27.96;25.98
69731;SHT31;56996;48.138;11.538;2022-07-05T13:38:25;27.98;25.90
69731;SHT31;56996;48.138;11.538;2022-07-05T13:40:51;28.10;25.88
69731;SHT31;56996;48.138;11.538;2022-07-05T13:43:17;28.27;25.97
69731;SHT31;56996;48.138;11.538;2022-07-05T13:45:43;28.45;26.06
69731;SHT31;56996;48.138;11.538;2022-07-05T13:48:10;28.70;26.28
69731;SHT31;56996;48.138;11.538;2022-07-05T13:50:36;28.87;26.07
69731;SHT31;56996;48.138;11.538;2022-07-05T13:53:03;28.79;26.10
69731;SHT31;56996;48.138;11.538;2022-07-05T13:55:29;28.59;26.52
69731;SHT31;56996;48.138;11.538;2022-07-05T13:57:55;28.54;26.83
69731;SHT31;56996;48.138;11.538;2022-07-05T14:00:23;28.63;26.98
69731;SHT31;56996;48.138;11.538;2022-07-05T14:02:51;28.78;27.03
69731;SHT31;56996;48.138;11.538;2022-07-05T14:05:17;28.77;26.91
69731;SHT31;56996;48.138;11.538;2022-07-05T14:07:49;28.53;27.08
69731;SHT31;56996;48.138;11.538;2022-07-05T14:10:15;28.55;26.88
69731;SHT31;56996;48.138;11.538;2022-07-05T14:12:41;28.61;26.95
69731;SHT31;56996;48.138;11.538;2022-07-05T14:15:08;28.84;27.17
69731;SHT31;56996;48.138;11.538;2022-07-05T14:17:34;29.02;27.01
69731;SHT31;56996;48.138;11.538;2022-07-05T14:20:01;29.24;26.80
69731;SHT31;56996;48.138;11.538;2022-07-05T14:22:27;29.23;26.77
69731;SHT31;56996;48.138;11.538;2022-07-05T14:24:54;29.19;26.73
69731;SHT31;56996;48.138;11.538;2022-07-05T14:27:20;29.23;26.30
69731;SHT31;56996;48.138;11.538;2022-07-05T14:29:53;29.18;26.43
69731;SHT31;56996;48.138;11.538;2022-07-05T14:32:19;29.23;26.68
69731;SHT31;56996;48.138;11.538;2022-07-05T14:34:45;29.16;26.49
69731;SHT31;56996;48.138;11.538;2022-07-05T14:37:12;28.84;26.84
69731;SHT31;56996;48.138;11.538;2022-07-05T14:39:40;28.70;26.89
69731;SHT31;56996;48.138;11.538;2022-07-05T14:42:06;28.52;26.76
69731;SHT31;56996;48.138;11.538;2022-07-05T14:44:32;28.53;26.73
69731;SHT31;56996;48.138;11.538;2022-07-05T14:46:58;28.60;26.93
69731;SHT31;56996;48.138;11.538;2022-07-05T14:49:24;28.69;27.03
69731;SHT31;56996;48.138;11.538;2022-07-05T14:51:50;28.69;26.98
69731;SHT31;56996;48.138;11.538;2022-07-05T14:54:16;28.56;27.11
69731;SHT31;56996;48.138;11.538;2022-07-05T14:56:43;28.43;27.17
69731;SHT31;56996;48.138;11.538;2022-07-05T14:59:09;28.28;27.07
69731;SHT31;56996;48.138;11.538;2022-07-05T15:01:35;28.22;26.93
69731;SHT31;56996;48.138;11.538;2022-07-05T15:04:01;28.30;27.01
69731;SHT31;56996;48.138;11.538;2022-07-05T15:06:27;28.44;26.92
69731;SHT31;56996;48.138;11.538;2022-07-05T15:08:53;28.49;26.85
69731;SHT31;56996;48.138;11.538;2022-07-05T15:11:24;28.33;26.65
69731;SHT31;56996;48.138;11.538;2022-07-05T15:13:51;28.35;26.80
69731;SHT31;56996;48.138;11.538;2022-07-05T15:16:17;28.56;26.89
69731;SHT31;56996;48.138;11.538;2022-07-05T15:18:43;28.54;26.94
69731;SHT31;56996;48.138;11.538;2022-07-05T15:21:10;28.37;27.25
69731;SHT31;56996;48.138;11.538;2022-07-05T15:23:36;28.33;27.43
69731;SHT31;56996;48.138;11.538;2022-07-05T15:26:02;28.45;27.36
69731;SHT31;56996;48.138;11.538;2022-07-05T15:28:28;28.63;27.34
69731;SHT31;56996;48.138;11.538;2022-07-05T15:30:54;28.70;27.27
69731;SHT31;56996;48.138;11.538;2022-07-05T15:33:21;28.58;27.13
69731;SHT31;56996;48.138;11.538;2022-07-05T15:35:53;28.40;27.46
69731;SHT31;56996;48.138;11.538;2022-07-05T15:38:23;28.32;27.58
69731;SHT31;56996;48.138;11.538;2022-07-05T15:40:53;28.28;27.70
69731;SHT31;56996;48.138;11.538;2022-07-05T15:43:20;28.18;27.76
69731;SHT31;56996;48.138;11.538;2022-07-05T15:45:51;28.04;28.16
69731;SHT31;56996;48.138;11.538;2022-07-05T15:48:19;28.03;28.15
69731;SHT31;56996;48.138;11.538;2022-07-05T15:50:47;28.07;28.68
69731;SHT31;56996;48.138;11.538;2022-07-05T15:53:13;28.17;28.41
69731;SHT31;56996;48.138;11.538;2022-07-05T15:55:40;28.25;28.26
69731;SHT31;56996;48.138;11.538;2022-07-05T15:58:06;28.27;28.21
69731;SHT31;56996;48.138;11.538;2022-07-05T16:00:32;28.22;27.79
69731;SHT31;56996;48.138;11.538;2022-07-05T16:02:58;28.08;27.99